Time;durP1;ratioP1;P1;durP2;ratioP2;P2;SDS_P1;SDS_P2;PMS_P1;PMS_P2;Temp;Humidity;BMP_temperature;BMP_pressure;BME280_temperature;BME280_humidity;BME280_pressure;Samples;Min_cycle;Max_cycle;Signal;HPM_P1;HPM_P2
2023/07/09 00:00:50;;;;;;;10.55;9.18;;;;;;;;;;5034126;28;20052;-78
2023/07/09 00:03:17;;;;;;;11.73;9.13;;;;;;;;;;5033945;28;20381;-78
2023/07/09 00:05:43;;;;;;;10.55;9.45;;;;;;;;;;5034179;28;20472;-78
2023/07/09 00:08:21;;;;;;;10.55;9.45;;;;;;;;;;5033920;28;20068;-78
2023/07/09 00:10:47;;;;;;;11.50;9.65;;;;;;;;;;5033870;28;20195;-78
2023/07/09 00:13:13;;;;;;;10.80;9.43;;;;;;;;;;5034318;28;20056;-78
2023/07/09 00:15:39;;;;;;;11.13;9.75;;;;;;;;;;5033890;28;20073;-78
2023/07/09 00:18:06;;;;;;;10.20;8.95;;;;;;;;;;5034017;28;20050;-78
2023/07/09 00:20:32;;;;;;;10.73;8.88;;;;;;;;;;5033903;28;20057;-78
2023/07/09 00:22:58;;;;;;;13.90;10.10;;;;;;;;;;5034202;28;20132;-78
2023/07/09 00:25:24;;;;;;;10.50;9.30;;;;;;;;;;5034457;28;20053;-78
2023/07/09 00:27:51;;;;;;;10.73;8.93;;;;;;;;;;5033227;28;20456;-78
2023/07/09 00:30:21;;;;;;;10.65;8.75;;;;;;;;;;5033809;28;20419;-78
2023/07/09 00:32:48;;;;;;;12.90;9.95;;;;;;;;;;5034629;28;20048;-78
2023/07/09 00:35:15;;;;;;;17.70;10.20;;;;;;;;;;5034146;28;20045;-78
2023/07/09 00:37:42;;;;;;;11.95;9.73;;;;;;;;;;5034296;28;20049;-78
2023/07/09 00:40:19;;;;;;;13.35;9.70;;;;;;;;;;5033887;28;20053;-78
2023/07/09 00:42:46;;;;;;;11.73;8.93;;;;;;;;;;5034137;28;20041;-78
2023/07/09 00:45:21;;;;;;;11.15;9.95;;;;;;;;;;5031706;28;20482;-79
2023/07/09 00:47:47;;;;;;;12.38;9.63;;;;;;;;;;5033135;28;20052;-78
2023/07/09 00:50:31;;;;;;;11.10;9.82;;;;;;;;;;5033070;28;20034;-78
2023/07/09 00:53:02;;;;;;;10.52;9.50;;;;;;;;;;5032888;28;20360;-78
2023/07/09 00:55:33;;;;;;;11.98;10.00;;;;;;;;;;5032980;28;20519;-78
2023/07/09 00:58:02;;;;;;;11.85;10.65;;;;;;;;;;5033599;28;20045;-78
2023/07/09 01:00:42;;;;;;;11.13;9.70;;;;;;;;;;5033224;28;20060;-78
2023/07/09 01:03:10;;;;;;;12.63;10.13;;;;;;;;;;5033446;28;20084;-78
2023/07/09 01:05:37;;;;;;;12.90;9.70;;;;;;;;;;5032971;28;20077;-78
2023/07/09 01:08:03;;;;;;;12.20;10.90;;;;;;;;;;5033068;28;20042;-78
2023/07/09 01:10:29;;;;;;;11.88;9.73;;;;;;;;;;5032763;28;20037;-79
2023/07/09 01:12:55;;;;;;;12.73;10.35;;;;;;;;;;5032572;28;20368;-79
2023/07/09 01:15:21;;;;;;;11.65;10.48;;;;;;;;;;5031140;28;20119;-79
2023/07/09 01:17:47;;;;;;;12.93;10.63;;;;;;;;;;5032870;28;20135;-79
2023/07/09 01:20:20;;;;;;;13.40;10.57;;;;;;;;;;5032918;28;20049;-78
2023/07/09 01:22:48;;;;;;;13.00;10.35;;;;;;;;;;5033396;28;20073;-78
2023/07/09 01:25:14;;;;;;;11.25;10.05;;;;;;;;;;5033029;28;20049;-78
2023/07/09 01:27:42;;;;;;;12.55;10.50;;;;;;;;;;5032492;28;20053;-78
2023/07/09 01:30:28;;;;;;;11.88;10.65;;;;;;;;;;5032918;28;20103;-78
2023/07/09 01:32:57;;;;;;;11.73;9.82;;;;;;;;;;5032983;28;20049;-78
2023/07/09 01:35:23;;;;;;;13.07;10.50;;;;;;;;;;5031216;28;20116;-78
2023/07/09 01:37:50;;;;;;;12.35;10.82;;;;;;;;;;5032815;28;20095;-78
2023/07/09 01:40:18;;;;;;;12.52;10.25;;;;;;;;;;5035558;28;20131;-78
2023/07/09 01:42:44;;;;;;;17.13;11.10;;;;;;;;;;5036600;28;20113;-78
2023/07/09 01:45:11;;;;;;;11.95;10.32;;;;;;;;;;5036379;28;20107;-78
2023/07/09 01:47:37;;;;;;;12.15;10.85;;;;;;;;;;5036251;28;20448;-78
2023/07/09 01:50:04;;;;;;;11.60;10.38;;;;;;;;;;5040234;28;20419;-78
2023/07/09 01:52:31;;;;;;;14.02;11.45;;;;;;;;;;5040598;28;20082;-78
2023/07/09 01:54:58;;;;;;;14.77;10.77;;;;;;;;;;5040635;28;20041;-78
2023/07/09 01:57:25;;;;;;;12.65;10.57;;;;;;;;;;5036496;28;20045;-78
2023/07/09 01:59:55;;;;;;;13.60;11.20;;;;;;;;;;5036129;28;20392;-78
2023/07/09 02:02:22;;;;;;;15.05;11.63;;;;;;;;;;5034774;28;20059;-78
2023/07/09 02:04:49;;;;;;;12.48;10.70;;;;;;;;;;5036040;28;20045;-78
2023/07/09 02:07:15;;;;;;;12.60;11.30;;;;;;;;;;5036054;28;20049;-78
2023/07/09 02:09:42;;;;;;;13.63;11.55;;;;;;;;;;5035695;28;20084;-78
2023/07/09 02:12:08;;;;;;;15.48;11.60;;;;;;;;;;5035866;28;20144;-78
2023/07/09 02:14:34;;;;;;;14.25;11.43;;;;;;;;;;5035650;28;20120;-78
2023/07/09 02:17:00;;;;;;;12.98;10.95;;;;;;;;;;5035689;28;20046;-78
2023/07/09 02:19:26;;;;;;;14.13;11.85;;;;;;;;;;5036131;28;20080;-78
2023/07/09 02:21:52;;;;;;;13.88;11.30;;;;;;;;;;5035124;28;20495;-78
2023/07/09 02:24:18;;;;;;;12.90;11.05;;;;;;;;;;5034098;28;20499;-79
2023/07/09 02:26:45;;;;;;;14.30;12.48;;;;;;;;;;5035201;28;20147;-79
2023/07/09 02:29:11;;;;;;;11.27;10.07;;;;;;;;;;5035540;28;20152;-78
2023/07/09 02:31:38;;;;;;;13.02;11.43;;;;;;;;;;5034847;28;20399;-78
2023/07/09 02:34:04;;;;;;;13.27;11.18;;;;;;;;;;5035151;28;20049;-78
2023/07/09 02:36:30;;;;;;;13.82;10.93;;;;;;;;;;5035007;28;20057;-78
2023/07/09 02:38:56;;;;;;;12.32;11.02;;;;;;;;;;5035082;28;20504;-78
2023/07/09 02:41:22;;;;;;;15.82;12.25;;;;;;;;;;5034924;28;20045;-78
2023/07/09 02:43:48;;;;;;;14.68;10.95;;;;;;;;;;5035199;28;20073;-78
2023/07/09 02:46:14;;;;;;;16.73;11.02;;;;;;;;;;5035018;28;20080;-78
2023/07/09 02:48:40;;;;;;;12.60;11.10;;;;;;;;;;5034681;28;20456;-78
2023/07/09 02:51:06;;;;;;;13.40;11.40;;;;;;;;;;5034330;28;20046;-78
2023/07/09 02:53:33;;;;;;;13.10;10.77;;;;;;;;;;5033543;28;20124;-78
2023/07/09 02:55:59;;;;;;;12.50;10.52;;;;;;;;;;5034613;28;20117;-78
2023/07/09 02:58:25;;;;;;;12.23;10.50;;;;;;;;;;5034881;28;20511;-78
2023/07/09 03:00:54;;;;;;;11.85;9.73;;;;;;;;;;5034591;28;20095;-78
2023/07/09 03:03:21;;;;;;;12.65;10.52;;;;;;;;;;5034300;28;20559;-78
2023/07/09 03:05:48;;;;;;;11.65;10.15;;;;;;;;;;5034803;28;20188;-78
2023/07/09 03:08:15;;;;;;;12.68;10.10;;;;;;;;;;5035059;28;20064;-78
2023/07/09 03:10:41;;;;;;;12.88;10.70;;;;;;;;;;5033115;28;20504;-78
2023/07/09 03:13:07;;;;;;;12.25;10.23;;;;;;;;;;5034663;28;20056;-78
2023/07/09 03:15:33;;;;;;;14.05;10.38;;;;;;;;;;5034950;28;20041;-78
2023/07/09 03:17:59;;;;;;;11.88;9.90;;;;;;;;;;5034340;28;20048;-78
2023/07/09 03:20:25;;;;;;;11.77;10.45;;;;;;;;;;5034383;28;20045;-78
2023/07/09 03:22:51;;;;;;;12.75;10.77;;;;;;;;;;5034734;28;20045;-78
2023/07/09 03:25:17;;;;;;;13.05;10.20;;;;;;;;;;5034473;28;20045;-78
2023/07/09 03:27:43;;;;;;;12.23;10.20;;;;;;;;;;5034037;28;20057;-78
2023/07/09 03:30:10;;;;;;;12.25;10.38;;;;;;;;;;5034620;28;20132;-78
2023/07/09 03:32:36;;;;;;;11.70;10.18;;;;;;;;;;5034093;28;20053;-78
2023/07/09 03:35:02;;;;;;;12.13;10.10;;;;;;;;;;5034203;28;20046;-78
2023/07/09 03:37:28;;;;;;;11.48;9.13;;;;;;;;;;5034368;28;20052;-78
2023/07/09 03:39:54;;;;;;;11.85;10.25;;;;;;;;;;5032780;28;20184;-78
2023/07/09 03:42:20;;;;;;;13.30;10.48;;;;;;;;;;5034191;28;20099;-78
2023/07/09 03:44:46;;;;;;;15.13;9.77;;;;;;;;;;5033932;28;20056;-78
2023/07/09 03:47:12;;;;;;;10.32;9.23;;;;;;;;;;5033660;28;20492;-78
2023/07/09 03:49:41;;;;;;;12.68;10.63;;;;;;;;;;5034184;28;20067;-78
2023/07/09 03:52:07;;;;;;;11.65;10.05;;;;;;;;;;5033333;28;20518;-78
2023/07/09 03:54:33;;;;;;;13.20;10.32;;;;;;;;;;5032716;28;20120;-79
2023/07/09 03:56:59;;;;;;;11.82;9.65;;;;;;;;;;5032282;28;20053;-79
2023/07/09 03:59:25;;;;;;;13.68;10.48;;;;;;;;;;5033378;28;20087;-79
2023/07/09 04:01:51;;;;;;;12.15;9.68;;;;;;;;;;5033208;28;20396;-79
2023/07/09 04:04:20;;;;;;;12.68;10.27;;;;;;;;;;5033557;28;20447;-79
2023/07/09 04:06:46;;;;;;;11.25;9.85;;;;;;;;;;5034029;28;20049;-79
2023/07/09 04:09:12;;;;;;;13.68;10.10;;;;;;;;;;5032464;28;20052;-79
2023/07/09 04:11:38;;;;;;;11.80;9.73;;;;;;;;;;5032248;28;20500;-79
2023/07/09 04:14:05;;;;;;;11.27;10.05;;;;;;;;;;5033828;28;20045;-79
2023/07/09 04:16:31;;;;;;;10.35;9.00;;;;;;;;;;5033554;28;20053;-79
2023/07/09 04:18:57;;;;;;;11.63;9.10;;;;;;;;;;5033854;28;20499;-78
2023/07/09 04:21:23;;;;;;;14.80;9.68;;;;;;;;;;5033443;28;20501;-79
2023/07/09 04:23:49;;;;;;;13.88;9.48;;;;;;;;;;5033989;28;20050;-79
2023/07/09 04:26:15;;;;;;;14.95;9.38;;;;;;;;;;5032081;28;20088;-79
2023/07/09 04:28:42;;;;;;;12.73;9.55;;;;;;;;;;5034407;28;20053;-79
2023/07/09 04:31:08;;;;;;;11.13;9.70;;;;;;;;;;5033678;28;20041;-78
2023/07/09 04:33:35;;;;;;;10.95;8.90;;;;;;;;;;5033732;28;20049;-78
2023/07/09 04:36:01;;;;;;;12.80;9.50;;;;;;;;;;5033441;28;20397;-78
2023/07/09 04:38:28;;;;;;;12.23;9.48;;;;;;;;;;5033484;28;20045;-78
2023/07/09 04:40:54;;;;;;;12.68;9.32;;;;;;;;;;5033774;28;20103;-78
2023/07/09 04:43:20;;;;;;;10.43;9.13;;;;;;;;;;5033589;28;20081;-78
2023/07/09 04:45:46;;;;;;;12.43;8.98;;;;;;;;;;5033928;28;20127;-78
2023/07/09 04:48:12;;;;;;;10.60;9.02;;;;;;;;;;5033562;28;20042;-78
2023/07/09 04:50:40;;;;;;;11.82;9.45;;;;;;;;;;5033720;28;20041;-78
2023/07/09 04:53:06;;;;;;;12.55;9.20;;;;;;;;;;5033888;28;20072;-78
2023/07/09 04:55:33;;;;;;;11.27;9.32;;;;;;;;;;5033563;28;20049;-78
2023/07/09 04:57:59;;;;;;;11.68;9.50;;;;;;;;;;5033773;28;20460;-78
2023/07/09 05:00:25;;;;;;;10.65;9.32;;;;;;;;;;5033428;28;20049;-78
2023/07/09 05:02:51;;;;;;;10.07;8.98;;;;;;;;;;5033947;28;20041;-79
2023/07/09 05:05:17;;;;;;;16.98;9.23;;;;;;;;;;5033715;28;20041;-79
2023/07/09 05:07:43;;;;;;;12.15;9.85;;;;;;;;;;5033445;28;20049;-78
2023/07/09 05:10:09;;;;;;;10.30;9.02;;;;;;;;;;5033671;28;20077;-78
2023/07/09 05:12:35;;;;;;;11.88;9.68;;;;;;;;;;5033773;28;20052;-78
2023/07/09 05:15:01;;;;;;;11.93;8.77;;;;;;;;;;5036410;28;20107;-78
2023/07/09 05:17:28;;;;;;;10.88;9.50;;;;;;;;;;5018059;28;20037;-78
2023/07/09 05:19:54;;;;;;;12.15;9.77;;;;;;;;;;5016275;28;20116;-79
2023/07/09 05:22:20;;;;;;;10.25;9.15;;;;;;;;;;5017285;28;20425;-78
2023/07/09 05:24:46;;;;;;;11.57;9.40;;;;;;;;;;5017448;28;20476;-78
2023/07/09 05:27:12;;;;;;;11.77;9.43;;;;;;;;;;5016512;28;20464;-78
2023/07/09 05:29:38;;;;;;;10.93;9.25;;;;;;;;;;5017482;28;20046;-78
2023/07/09 05:32:04;;;;;;;12.63;9.93;;;;;;;;;;5017024;28;20049;-78
2023/07/09 05:34:30;;;;;;;13.88;10.00;;;;;;;;;;5017554;28;20050;-78
2023/07/09 05:36:56;;;;;;;12.68;10.15;;;;;;;;;;5017042;28;20096;-78
2023/07/09 05:39:22;;;;;;;12.50;9.75;;;;;;;;;;5018016;28;20045;-78
2023/07/09 05:41:48;;;;;;;15.95;9.85;;;;;;;;;;5019174;28;20060;-78
2023/07/09 05:44:14;;;;;;;10.63;9.43;;;;;;;;;;5021785;28;20038;-78
2023/07/09 05:46:40;;;;;;;11.35;9.65;;;;;;;;;;5021377;28;20053;-80
2023/07/09 05:49:07;;;;;;;17.25;10.00;;;;;;;;;;5018607;28;20072;-80
2023/07/09 05:51:33;;;;;;;11.45;9.43;;;;;;;;;;5017498;28;20455;-79
2023/07/09 05:53:59;;;;;;;11.98;9.13;;;;;;;;;;5015841;28;20512;-80
2023/07/09 05:56:25;;;;;;;11.80;9.65;;;;;;;;;;5016897;28;20080;-80
2023/07/09 05:58:52;;;;;;;11.13;9.43;;;;;;;;;;5016609;28;20472;-79
2023/07/09 06:01:20;;;;;;;11.50;9.95;;;;;;;;;;5016529;28;20042;-79
2023/07/09 06:03:46;;;;;;;11.02;9.13;;;;;;;;;;5016418;28;20578;-78
2023/07/09 06:06:12;;;;;;;12.18;9.75;;;;;;;;;;5016677;28;20615;-78
2023/07/09 06:08:38;;;;;;;11.43;10.18;;;;;;;;;;5016239;28;20859;-78
2023/07/09 06:11:05;;;;;;;14.52;9.73;;;;;;;;;;5016180;28;20064;-78
2023/07/09 06:13:32;;;;;;;13.82;9.02;;;;;;;;;;5016236;28;20046;-78
2023/07/09 06:15:58;;;;;;;12.75;10.05;;;;;;;;;;5024744;28;20041;-78
2023/07/09 06:18:29;;;;;;;14.25;10.80;;;;;;;;;;5037013;28;20076;-77
2023/07/09 06:20:55;;;;;;;13.05;10.18;;;;;;;;;;5035699;28;20164;-76
2023/07/09 06:23:21;;;;;;;12.30;9.73;;;;;;;;;;5034345;28;20048;-76
2023/07/09 06:25:48;;;;;;;12.90;10.07;;;;;;;;;;5034420;28;20045;-76
2023/07/09 06:28:18;;;;;;;14.85;9.43;;;;;;;;;;5034825;28;20586;-76
2023/07/09 06:30:44;;;;;;;12.13;9.52;;;;;;;;;;5034827;28;20562;-76
2023/07/09 06:33:11;;;;;;;12.27;9.48;;;;;;;;;;5033791;28;20124;-76
2023/07/09 06:35:39;;;;;;;12.10;9.52;;;;;;;;;;5035275;28;20053;-76
2023/07/09 06:38:05;;;;;;;12.35;9.85;;;;;;;;;;5034921;28;20135;-76
2023/07/09 06:40:31;;;;;;;11.18;9.70;;;;;;;;;;5034864;28;20052;-76
2023/07/09 06:42:57;;;;;;;13.30;9.68;;;;;;;;;;5034984;28;20191;-76
2023/07/09 06:45:24;;;;;;;12.40;9.55;;;;;;;;;;5033455;28;20413;-76
2023/07/09 06:47:50;;;;;;;12.13;9.57;;;;;;;;;;5035002;28;20084;-77
2023/07/09 06:50:16;;;;;;;11.98;9.52;;;;;;;;;;5034771;28;20057;-77
2023/07/09 06:52:43;;;;;;;10.55;9.45;;;;;;;;;;5033109;28;20046;-77
2023/07/09 06:55:09;;;;;;;12.30;9.27;;;;;;;;;;5025874;28;20056;-77
2023/07/09 06:57:35;;;;;;;11.48;9.75;;;;;;;;;;5015168;28;20038;-77
2023/07/09 07:00:01;;;;;;;14.20;10.00;;;;;;;;;;5015195;28;20124;-77
2023/07/09 07:02:28;;;;;;;12.90;10.88;;;;;;;;;;5014995;28;20052;-76
2023/07/09 07:04:54;;;;;;;14.38;11.05;;;;;;;;;;5013225;28;20081;-76
2023/07/09 07:07:20;;;;;;;12.20;10.77;;;;;;;;;;5014635;28;20128;-76
2023/07/09 07:09:46;;;;;;;11.57;10.00;;;;;;;;;;5013765;28;20053;-76
2023/07/09 07:12:20;;;;;;;15.02;10.50;;;;;;;;;;5014905;28;20149;-76
2023/07/09 07:14:46;;;;;;;12.32;10.63;;;;;;;;;;5014852;28;20117;-76
2023/07/09 07:17:14;;;;;;;11.70;10.30;;;;;;;;;;5014245;28;20042;-76
2023/07/09 07:19:40;;;;;;;13.00;10.63;;;;;;;;;;5014813;28;20050;-76
2023/07/09 07:22:07;;;;;;;12.95;11.27;;;;;;;;;;5014301;28;20093;-76
2023/07/09 07:24:33;;;;;;;14.10;12.05;;;;;;;;;;5014467;28;20104;-76
2023/07/09 07:26:59;;;;;;;12.68;11.25;;;;;;;;;;5014054;28;20065;-76
2023/07/09 07:29:25;;;;;;;15.38;11.90;;;;;;;;;;5014367;28;20460;-76
2023/07/09 07:31:51;;;;;;;14.73;12.05;;;;;;;;;;5013945;28;20399;-77
2023/07/09 07:34:18;;;;;;;15.10;12.88;;;;;;;;;;4996554;28;20480;-76
2023/07/09 07:36:44;;;;;;;13.73;11.32;;;;;;;;;;5014530;28;20111;-76
2023/07/09 07:39:10;;;;;;;13.45;11.82;;;;;;;;;;5014164;28;20046;-76
2023/07/09 07:41:36;;;;;;;16.48;13.45;;;;;;;;;;5014068;28;20129;-77
2023/07/09 07:44:02;;;;;;;18.70;12.82;;;;;;;;;;5013852;28;20053;-77
2023/07/09 07:46:32;;;;;;;15.93;13.00;;;;;;;;;;5013775;28;20049;-77
2023/07/09 07:48:58;;;;;;;15.68;13.75;;;;;;;;;;5014379;28;20042;-77
2023/07/09 07:51:24;;;;;;;18.15;13.88;;;;;;;;;;5012467;28;20046;-76
2023/07/09 07:53:50;;;;;;;16.60;13.07;;;;;;;;;;5014290;28;20473;-76
2023/07/09 07:56:16;;;;;;;18.73;15.02;;;;;;;;;;5031169;28;20599;-76
2023/07/09 07:58:42;;;;;;;17.73;14.77;;;;;;;;;;5033549;28;20055;-76
2023/07/09 08:01:08;;;;;;;18.52;13.82;;;;;;;;;;5033400;28;20163;-76
2023/07/09 08:03:34;;;;;;;18.35;13.68;;;;;;;;;;5033313;28;20385;-76
2023/07/09 08:06:00;;;;;;;18.38;14.85;;;;;;;;;;5033659;28;20049;-76
2023/07/09 08:08:27;;;;;;;17.30;14.93;;;;;;;;;;5033540;28;20050;-76
2023/07/09 08:11:00;;;;;;;18.95;14.93;;;;;;;;;;5033203;28;20492;-76
2023/07/09 08:13:26;;;;;;;18.17;15.52;;;;;;;;;;5033608;28;20045;-76
2023/07/09 08:15:52;;;;;;;16.50;14.75;;;;;;;;;;5033504;28;20041;-76
2023/07/09 08:18:18;;;;;;;17.55;14.48;;;;;;;;;;5033452;28;20045;-76
2023/07/09 08:20:44;;;;;;;18.17;15.60;;;;;;;;;;5033336;28;20045;-76
2023/07/09 08:23:11;;;;;;;17.55;14.95;;;;;;;;;;5033295;28;20472;-76
2023/07/09 08:25:37;;;;;;;17.17;14.80;;;;;;;;;;5033096;28;20054;-76
2023/07/09 08:28:03;;;;;;;17.02;13.02;;;;;;;;;;5033622;28;20136;-76
2023/07/09 08:30:29;;;;;;;16.50;13.63;;;;;;;;;;5033474;28;20037;-76
2023/07/09 08:32:55;;;;;;;15.20;12.85;;;;;;;;;;5032866;28;20045;-76
2023/07/09 08:35:21;;;;;;;15.65;12.38;;;;;;;;;;5033027;28;20514;-76
2023/07/09 08:37:48;;;;;;;14.30;12.68;;;;;;;;;;5033324;28;20056;-76
2023/07/09 08:40:15;;;;;;;15.80;13.02;;;;;;;;;;5033137;28;20052;-76
2023/07/09 08:42:45;;;;;;;14.75;12.23;;;;;;;;;;5033728;28;20045;-76
2023/07/09 08:45:17;;;;;;;13.23;11.05;;;;;;;;;;5032993;28;20053;-76
2023/07/09 08:47:49;;;;;;;15.57;11.32;;;;;;;;;;5035021;28;20128;-76
2023/07/09 08:50:16;;;;;;;13.95;11.98;;;;;;;;;;5039593;28;20037;-76
2023/07/09 08:52:44;;;;;;;15.88;11.80;;;;;;;;;;5039862;28;20041;-77
2023/07/09 08:55:34;;;;;;;14.30;12.32;;;;;;;;;;5039750;28;20392;-76
2023/07/09 08:58:03;;;;;;;14.73;11.95;;;;;;;;;;5039874;28;20037;-76
2023/07/09 09:00:39;;;;;;;12.07;10.48;;;;;;;;;;5039414;28;20111;-76
2023/07/09 09:03:09;;;;;;;13.15;11.43;;;;;;;;;;5039544;28;20049;-76
2023/07/09 09:05:40;;;;;;;10.05;9.02;;;;;;;;;;5039087;28;20068;-76
2023/07/09 09:08:15;;;;;;;11.05;8.63;;;;;;;;;;5039474;28;20041;-76
2023/07/09 09:10:47;;;;;;;9.98;7.85;;;;;;;;;;5039340;28;20045;-76
2023/07/09 09:13:14;;;;;;;9.48;7.80;;;;;;;;;;5039017;28;20041;-76
2023/07/09 09:15:41;;;;;;;8.73;6.43;;;;;;;;;;5033511;28;20132;-76
2023/07/09 09:18:17;;;;;;;10.10;6.72;;;;;;;;;;5019706;28;20060;-76
2023/07/09 09:20:56;;;;;;;9.82;5.93;;;;;;;;;;5019105;28;20527;-76
2023/07/09 09:23:23;;;;;;;7.95;5.90;;;;;;;;;;5019561;28;20050;-76
2023/07/09 09:25:54;;;;;;;8.45;5.80;;;;;;;;;;5019394;28;20096;-76
2023/07/09 09:28:22;;;;;;;8.40;5.68;;;;;;;;;;5018833;28;20057;-76
2023/07/09 09:30:48;;;;;;;7.40;6.15;;;;;;;;;;5019408;28;20115;-76
2023/07/09 09:33:17;;;;;;;8.32;5.90;;;;;;;;;;5019647;28;20073;-76
2023/07/09 09:35:44;;;;;;;8.68;6.15;;;;;;;;;;5022086;28;20049;-76
2023/07/09 09:38:12;;;;;;;9.48;6.40;;;;;;;;;;5024090;28;20049;-76
2023/07/09 09:40:39;;;;;;;9.00;6.78;;;;;;;;;;5024288;28;20056;-76
2023/07/09 09:43:13;;;;;;;9.27;6.05;;;;;;;;;;5021232;28;20049;-76
2023/07/09 09:45:40;;;;;;;9.23;6.72;;;;;;;;;;5024148;28;20037;-77
2023/07/09 09:48:14;;;;;;;10.85;6.38;;;;;;;;;;5019212;28;20077;-76
2023/07/09 09:50:41;;;;;;;7.65;5.82;;;;;;;;;;5019425;28;20048;-76
2023/07/09 09:53:08;;;;;;;8.35;6.55;;;;;;;;;;5019054;28;20049;-76
2023/07/09 09:55:35;;;;;;;8.88;5.78;;;;;;;;;;5019101;28;20053;-76
2023/07/09 09:58:02;;;;;;;7.72;5.43;;;;;;;;;;5019491;28;20052;-76
2023/07/09 10:00:33;;;;;;;7.82;5.68;;;;;;;;;;5015114;28;20049;-76
2023/07/09 10:03:00;;;;;;;8.07;5.70;;;;;;;;;;5015951;28;20100;-76
2023/07/09 10:05:30;;;;;;;7.55;5.85;;;;;;;;;;5015945;28;20077;-76
2023/07/09 10:08:03;;;;;;;7.72;5.68;;;;;;;;;;5016626;28;20038;-76
2023/07/09 10:10:30;;;;;;;6.80;5.28;;;;;;;;;;5015870;28;20042;-77
2023/07/09 10:13:08;;;;;;;7.82;5.82;;;;;;;;;;5015778;28;20056;-76
2023/07/09 10:16:01;;;;;;;8.18;6.00;;;;;;;;;;5020817;28;20348;-77
2023/07/09 10:18:33;;;;;;;9.93;5.18;;;;;;;;;;5035789;28;20103;-77
2023/07/09 10:21:16;;;;;;;8.55;5.88;;;;;;;;;;5035521;28;20052;-77
2023/07/09 10:23:59;;;;;;;7.72;6.05;;;;;;;;;;5035793;28;20045;-76
2023/07/09 10:26:35;;;;;;;6.93;5.82;;;;;;;;;;5034785;28;20050;-77
2023/07/09 10:29:07;;;;;;;7.68;6.53;;;;;;;;;;5035837;28;20049;-77
2023/07/09 10:31:43;;;;;;;10.13;6.97;;;;;;;;;;5035321;28;20046;-77
2023/07/09 10:34:19;;;;;;;9.35;6.95;;;;;;;;;;5035312;28;20052;-77
2023/07/09 10:36:48;;;;;;;8.82;6.25;;;;;;;;;;5035144;28;20049;-77
2023/07/09 10:39:22;;;;;;;9.30;6.15;;;;;;;;;;5035622;28;20065;-77
2023/07/09 10:41:50;;;;;;;9.90;7.07;;;;;;;;;;5034879;28;20052;-77
2023/07/09 10:44:21;;;;;;;8.90;6.13;;;;;;;;;;5033958;28;20045;-78
2023/07/09 10:46:49;;;;;;;7.03;5.57;;;;;;;;;;5035172;28;20048;-77
2023/07/09 10:49:16;;;;;;;9.50;6.13;;;;;;;;;;5034642;28;20077;-77
2023/07/09 10:51:47;;;;;;;7.35;5.93;;;;;;;;;;5034719;28;20125;-77
2023/07/09 10:54:13;;;;;;;9.05;5.82;;;;;;;;;;5034833;28;20133;-77
2023/07/09 10:56:39;;;;;;;10.02;6.38;;;;;;;;;;5034623;28;20124;-78
2023/07/09 10:59:26;;;;;;;7.57;5.68;;;;;;;;;;5035357;28;20099;-77
2023/07/09 11:01:58;;;;;;;7.13;5.68;;;;;;;;;;5034720;28;20052;-78
2023/07/09 11:04:27;;;;;;;6.38;5.00;;;;;;;;;;5034420;28;20388;-77
2023/07/09 11:06:56;;;;;;;6.72;5.47;;;;;;;;;;5034431;28;20085;-77
2023/07/09 11:09:29;;;;;;;8.25;5.65;;;;;;;;;;5033384;28;20046;-78
2023/07/09 11:11:57;;;;;;;6.30;5.38;;;;;;;;;;5033831;28;20045;-77
2023/07/09 11:14:33;;;;;;;8.35;5.60;;;;;;;;;;5034916;28;20060;-77
2023/07/09 11:17:00;;;;;;;8.85;5.07;;;;;;;;;;5034185;28;21205;-77
2023/07/09 11:19:27;;;;;;;6.35;5.25;;;;;;;;;;5034670;28;20041;-77
2023/07/09 11:22:02;;;;;;;7.20;4.97;;;;;;;;;;5034673;28;20055;-77
2023/07/09 11:24:50;;;;;;;6.72;5.05;;;;;;;;;;5033940;28;20399;-77
2023/07/09 11:27:24;;;;;;;8.23;5.65;;;;;;;;;;5034129;28;20392;-77
2023/07/09 11:30:00;;;;;;;8.82;6.38;;;;;;;;;;5034858;28;20051;-77
2023/07/09 11:32:27;;;;;;;9.07;5.60;;;;;;;;;;5034356;28;20048;-76
2023/07/09 11:34:53;;;;;;;11.23;5.70;;;;;;;;;;5034764;28;20357;-77
2023/07/09 11:37:24;;;;;;;7.55;5.60;;;;;;;;;;5033870;28;20073;-77
2023/07/09 11:39:50;;;;;;;7.68;5.70;;;;;;;;;;5034088;28;20041;-77
2023/07/09 11:42:26;;;;;;;8.15;5.95;;;;;;;;;;5033873;28;20049;-77
2023/07/09 11:44:57;;;;;;;8.15;5.70;;;;;;;;;;5033910;28;20046;-77
2023/07/09 11:47:36;;;;;;;7.70;5.50;;;;;;;;;;5033840;28;20046;-77
2023/07/09 11:50:05;;;;;;;9.48;5.53;;;;;;;;;;5033463;28;20095;-78
2023/07/09 11:52:33;;;;;;;7.05;5.25;;;;;;;;;;5033741;28;20460;-78
2023/07/09 11:55:20;;;;;;;6.60;5.25;;;;;;;;;;5033481;28;20049;-77
2023/07/09 11:57:53;;;;;;;7.88;5.55;;;;;;;;;;5033497;28;20094;-77
2023/07/09 12:00:19;;;;;;;7.10;5.97;;;;;;;;;;5033315;28;20077;-77
2023/07/09 12:02:45;;;;;;;7.38;5.18;;;;;;;;;;5033243;28;20046;-78
2023/07/09 12:05:12;;;;;;;9.10;6.05;;;;;;;;;;5033368;28;20042;-77
2023/07/09 12:07:38;;;;;;;7.50;5.05;;;;;;;;;;5033484;28;20460;-77
2023/07/09 12:10:14;;;;;;;9.20;5.88;;;;;;;;;;5033401;28;20041;-77
2023/07/09 12:12:42;;;;;;;7.50;5.15;;;;;;;;;;5033977;28;20041;-76
2023/07/09 12:15:19;;;;;;;10.00;5.78;;;;;;;;;;5033513;28;20545;-77
2023/07/09 12:17:53;;;;;;;7.15;5.63;;;;;;;;;;5033614;28;20060;-77
2023/07/09 12:20:19;;;;;;;7.05;5.45;;;;;;;;;;5033310;28;20052;-76
2023/07/09 12:22:45;;;;;;;7.05;5.85;;;;;;;;;;5032728;28;20095;-77
2023/07/09 12:25:19;;;;;;;7.65;6.07;;;;;;;;;;5033331;28;20412;-77
2023/07/09 12:27:45;;;;;;;6.97;5.72;;;;;;;;;;5033197;28;20083;-77
2023/07/09 12:30:12;;;;;;;8.57;5.85;;;;;;;;;;5033201;28;20050;-77
2023/07/09 12:32:54;;;;;;;8.90;5.50;;;;;;;;;;5033181;28;20107;-76
2023/07/09 12:35:20;;;;;;;10.27;5.85;;;;;;;;;;5033140;28;20120;-77
2023/07/09 12:37:47;;;;;;;6.88;5.60;;;;;;;;;;5033380;28;20091;-78
2023/07/09 12:40:32;;;;;;;8.77;5.90;;;;;;;;;;5033558;28;20046;-77
2023/07/09 12:42:58;;;;;;;7.95;5.60;;;;;;;;;;5033057;28;20451;-77
2023/07/09 12:45:24;;;;;;;8.98;6.00;;;;;;;;;;5033012;28;20045;-77
2023/07/09 12:47:51;;;;;;;7.13;5.70;;;;;;;;;;5033154;28;20041;-76
2023/07/09 12:50:22;;;;;;;8.40;6.05;;;;;;;;;;5032647;28;20042;-76
2023/07/09 12:52:49;;;;;;;9.27;5.97;;;;;;;;;;5033179;28;20175;-77
2023/07/09 12:55:19;;;;;;;7.55;5.75;;;;;;;;;;5023436;28;20046;-77
2023/07/09 12:57:47;;;;;;;6.93;5.75;;;;;;;;;;5011381;28;20070;-78
2023/07/09 13:00:17;;;;;;;9.27;6.20;;;;;;;;;;5013014;28;20124;-77
2023/07/09 13:02:43;;;;;;;8.27;5.93;;;;;;;;;;5012949;28;20477;-77
2023/07/09 13:05:22;;;;;;;30.13;8.82;;;;;;;;;;5013662;28;20038;-77
2023/07/09 13:07:59;;;;;;;9.82;6.68;;;;;;;;;;5013173;28;20073;-77
2023/07/09 13:10:27;;;;;;;8.68;6.93;;;;;;;;;;5013181;28;20108;-77
2023/07/09 13:12:54;;;;;;;9.43;7.20;;;;;;;;;;5013274;28;20125;-77
2023/07/09 13:15:27;;;;;;;15.43;8.93;;;;;;;;;;5015920;28;20042;-77
2023/07/09 13:18:03;;;;;;;14.73;7.85;;;;;;;;;;5032601;28;20034;-77
2023/07/09 13:20:30;;;;;;;10.32;7.75;;;;;;;;;;5032633;28;20049;-76
2023/07/09 13:22:56;;;;;;;12.27;8.10;;;;;;;;;;5033052;28;20052;-77
2023/07/09 13:25:23;;;;;;;38.78;11.10;;;;;;;;;;5032797;28;20099;-76
2023/07/09 13:27:49;;;;;;;12.70;9.13;;;;;;;;;;5032192;28;20132;-76
2023/07/09 13:30:15;;;;;;;13.60;8.93;;;;;;;;;;5033157;28;20041;-77
2023/07/09 13:32:41;;;;;;;20.05;9.15;;;;;;;;;;5032327;28;20133;-77
2023/07/09 13:35:18;;;;;;;21.63;9.80;;;;;;;;;;5034858;28;20079;-77
2023/07/09 13:37:45;;;;;;;13.82;8.65;;;;;;;;;;5036793;28;20045;-78
2023/07/09 13:40:12;;;;;;;14.27;7.70;;;;;;;;;;5037596;28;20076;-77
2023/07/09 13:42:38;;;;;;;10.75;7.68;;;;;;;;;;5041814;28;20056;-77
2023/07/09 13:45:04;;;;;;;9.65;7.93;;;;;;;;;;5040878;28;20042;-77
2023/07/09 13:47:33;;;;;;;9.43;7.00;;;;;;;;;;5041233;28;20046;-77
2023/07/09 13:49:59;;;;;;;9.02;8.07;;;;;;;;;;5038431;28;20053;-77
2023/07/09 13:52:25;;;;;;;21.73;8.13;;;;;;;;;;5034977;28;20041;-78
2023/07/09 13:54:51;;;;;;;8.85;6.63;;;;;;;;;;5030159;28;20084;-77
2023/07/09 13:57:19;;;;;;;8.07;6.95;;;;;;;;;;5015850;28;20061;-78
2023/07/09 13:59:46;;;;;;;9.30;6.70;;;;;;;;;;5016393;28;20049;-77
2023/07/09 14:02:20;;;;;;;12.18;7.70;;;;;;;;;;5016087;28;20050;-77
2023/07/09 14:04:46;;;;;;;10.98;9.38;;;;;;;;;;5014912;28;20424;-77
2023/07/09 14:07:25;;;;;;;12.73;9.73;;;;;;;;;;5016454;28;20415;-77
2023/07/09 14:09:51;;;;;;;10.75;8.32;;;;;;;;;;5016183;28;20050;-78
2023/07/09 14:12:17;;;;;;;11.55;7.50;;;;;;;;;;5015576;28;20124;-78
2023/07/09 14:14:44;;;;;;;10.50;7.57;;;;;;;;;;5015753;28;20080;-78
2023/07/09 14:17:12;;;;;;;12.50;7.63;;;;;;;;;;5034469;28;20056;-77
2023/07/09 14:19:38;;;;;;;10.48;7.28;;;;;;;;;;5035140;28;20482;-77
2023/07/09 14:22:16;;;;;;;9.80;6.90;;;;;;;;;;5035603;28;20049;-77
2023/07/09 14:24:42;;;;;;;12.85;6.07;;;;;;;;;;5035523;28;20045;-77
2023/07/09 14:27:09;;;;;;;8.95;5.55;;;;;;;;;;5035053;28;20065;-77
2023/07/09 14:29:35;;;;;;;8.27;5.20;;;;;;;;;;5033845;28;20072;-78
2023/07/09 14:32:02;;;;;;;7.30;4.32;;;;;;;;;;5035227;28;20067;-78
2023/07/09 14:34:30;;;;;;;7.50;4.43;;;;;;;;;;5035776;28;20056;-78